Time;durP1;ratioP1;P1;durP2;ratioP2;P2;SDS_P1;SDS_P2;PMS_P1;PMS_P2;Temp;Humidity;BMP_temperature;BMP_pressure;BME280_temperature;BME280_humidity;BME280_pressure;Samples;Min_cycle;Max_cycle;Signal;HPM_P1;HPM_P2
2022/01/14 00:00:00;;;;;;;6.90;4.20;;;;;;100970.53;;;;106359;1300;62512;-29
2022/01/14 00:02:27;;;;;;;7.40;4.90;;;;;;100955.61;;;;106530;1299;66260;-28
2022/01/14 00:04:55;;;;;;;6.70;4.40;;;;;;100956.70;;;;106495;1299;62541;-29
2022/01/14 00:07:24;;;;;;;7.50;4.60;;;;;;100965.30;;;;106494;1299;62722;-28
2022/01/14 00:09:51;;;;;;;7.30;4.40;;;;;;100966.16;;;;106494;1298;62681;-28
2022/01/14 00:12:24;;;;;;;9.00;4.70;;;;;;100964.50;;;;106508;1299;62593;-28
2022/01/14 00:15:22;;;;;;;;;;;;;;100966.14;;;;106545;1298;66555;-31
2022/01/14 00:17:47;;;;;;;7.20;4.20;;;;;;100964.83;;;;106462;1299;62654;-30
2022/01/14 00:20:14;;;;;;;7.20;4.30;;;;;;100959.55;;;;106498;1300;62596;-30
2022/01/14 00:22:45;;;;;;;7.20;4.30;;;;;;100957.69;;;;106474;1298;62535;-40
2022/01/14 00:33:16;;;;;;;7.20;4.40;;;;;;100935.34;;;;106484;1299;62622;-47
2022/01/14 00:35:46;;;;;;;7.80;4.00;;;;;;100930.83;;;;106479;1298;62679;-48
2022/01/14 00:38:14;;;;;;;6.80;4.20;;;;;;100928.25;;;;106510;1298;62564;-28
2022/01/14 00:40:41;;;;;;;6.70;4.10;;;;;;100926.63;;;;106483;1299;64816;-28
2022/01/14 00:43:09;;;;;;;7.10;3.80;;;;;;100920.80;;;;106426;1299;62645;-28
2022/01/14 00:45:38;;;;;;;7.60;4.10;;;;;;100913.15;;;;106487;1297;62711;-29
2022/01/14 00:48:06;;;;;;;6.10;4.00;;;;;;100904.52;;;;106431;1299;62602;-48
2022/01/14 00:50:40;;;;;;;7.20;4.10;;;;;;100903.70;;;;106494;1299;62598;-48
2022/01/14 00:53:07;;;;;;;7.50;4.10;;;;;;100904.05;;;;106498;1299;68154;-29
2022/01/14 00:55:48;;;;;;;6.20;3.90;;;;;;100900.96;;;;106501;1299;62541;-28
2022/01/14 01:01:03;;;;;;;6.10;3.60;;;;;;100890.30;;;;106512;1299;62885;-41
2022/01/14 01:03:32;;;;;;;6.30;3.90;;;;;;100898.50;;;;105964;1300;710078;-48
2022/01/14 01:05:59;;;;;;;6.90;4.00;;;;;;100898.61;;;;106485;1300;66046;-40
2022/01/14 01:08:29;;;;;;;5.80;3.50;;;;;;100898.63;;;;106438;1299;62613;-50
2022/01/14 01:10:56;;;;;;;6.30;4.00;;;;;;100892.21;;;;106488;1299;62661;-48
2022/01/14 01:13:31;;;;;;;5.70;3.40;;;;;;100888.81;;;;106512;1300;62618;-28
2022/01/14 01:15:59;;;;;;;6.30;3.70;;;;;;100883.55;;;;106507;1298;62556;-31
2022/01/14 01:18:26;;;;;;;7.90;4.10;;;;;;100875.19;;;;106543;1298;65340;-30
2022/01/14 01:20:54;;;;;;;6.60;3.60;;;;;;100872.20;;;;106483;1299;62708;-30
2022/01/14 01:23:21;;;;;;;7.60;4.40;;;;;;100863.13;;;;106504;1298;62661;-31
2022/01/14 01:25:55;;;;;;;5.90;3.60;;;;;;100858.25;;;;106475;1299;62600;-31
2022/01/14 01:28:22;;;;;;;7.00;3.90;;;;;;100856.44;;;;106538;1298;62635;-44
2022/01/14 01:31:02;;;;;;;5.00;3.50;;;;;;100853.11;;;;106502;1298;65290;-48
2022/01/14 01:33:29;;;;;;;6.40;3.60;;;;;;100853.61;;;;106515;1298;62611;-29
2022/01/14 01:35:56;;;;;;;6.60;3.90;;;;;;100847.85;;;;106491;1298;62601;-28
2022/01/14 01:38:24;;;;;;;6.80;3.80;;;;;;100851.61;;;;106498;1298;62577;-29
2022/01/14 01:40:51;;;;;;;6.30;3.80;;;;;;100853.52;;;;106510;1299;62530;-29
2022/01/14 01:43:21;;;;;;;5.40;3.70;;;;;;100852.02;;;;106485;1298;65901;-31
2022/01/14 01:45:51;;;;;;;6.10;3.80;;;;;;100859.91;;;;106486;1299;62685;-28
2022/01/14 01:48:18;;;;;;;6.70;3.70;;;;;;100852.90;;;;106486;1298;62526;-52
2022/01/14 01:50:49;;;;;;;6.60;3.60;;;;;;100853.77;;;;106410;1298;62694;-48
2022/01/14 01:53:16;;;;;;;6.20;3.80;;;;;;100845.69;;;;106522;1300;62573;-42
2022/01/14 01:55:46;;;;;;;6.20;3.50;;;;;;100831.94;;;;106483;1297;64727;-40
2022/01/14 01:58:14;;;;;;;6.00;3.60;;;;;;100837.69;;;;106505;1299;62757;-48
2022/01/14 02:00:44;;;;;;;6.10;3.30;;;;;;100833.71;;;;106486;1299;62607;-50
2022/01/14 02:03:12;;;;;;;6.10;3.60;;;;;;100827.09;;;;106489;1298;62647;-49
2022/01/14 02:05:44;;;;;;;6.00;3.40;;;;;;100824.59;;;;106516;1299;62520;-50
2022/01/14 02:08:12;;;;;;;6.50;4.20;;;;;;100811.29;;;;106517;1298;64891;-36
2022/01/14 02:10:39;;;;;;;5.70;3.60;;;;;;100801.05;;;;106478;1298;62591;-30
2022/01/14 02:13:06;;;;;;;5.50;3.50;;;;;;100794.99;;;;106494;1299;62522;-45
2022/01/14 02:23:51;;;;;;;5.80;3.40;;;;;;100777.09;;;;106506;1299;62609;-45
2022/01/14 02:26:20;;;;;;;8.30;3.70;;;;;;100776.21;;;;106495;1299;62486;-45
2022/01/14 02:28:49;;;;;;;5.70;3.20;;;;;;100781.08;;;;106490;1300;62535;-29
2022/01/14 02:31:17;;;;;;;5.70;3.10;;;;;;100776.48;;;;106538;1300;62575;-29
2022/01/14 02:33:45;;;;;;;6.50;3.10;;;;;;100767.12;;;;106459;1298;64969;-49
2022/01/14 02:36:12;;;;;;;5.90;3.60;;;;;;100761.11;;;;106470;1298;62623;-41
2022/01/14 02:38:39;;;;;;;7.90;3.50;;;;;;100750.92;;;;106479;1297;62491;-28
2022/01/14 02:41:07;;;;;;;5.80;3.20;;;;;;100750.00;;;;106428;1298;62592;-31
2022/01/14 02:43:35;;;;;;;6.00;3.30;;;;;;100742.04;;;;106512;1299;62594;-28
2022/01/14 02:46:05;;;;;;;7.10;3.50;;;;;;100737.11;;;;106473;1298;66248;-29
2022/01/14 02:48:32;;;;;;;5.50;3.10;;;;;;100727.40;;;;106473;1298;62630;-43
2022/01/14 02:51:10;;;;;;;7.10;3.30;;;;;;100721.48;;;;106500;1298;62665;-43
2022/01/14 02:56:10;;;;;;;5.90;3.30;;;;;;100720.21;;;;106492;1299;62567;-47
2022/01/14 02:58:41;;;;;;;5.30;3.00;;;;;;100712.31;;;;106503;1299;66470;-30
2022/01/14 03:01:28;;;;;;;6.30;3.70;;;;;;100709.44;;;;106482;1299;62604;-31
2022/01/14 03:04:02;;;;;;;5.50;3.20;;;;;;100711.00;;;;106503;1298;63013;-31
2022/01/14 03:06:31;;;;;;;6.60;3.20;;;;;;100702.08;;;;106479;1299;62698;-31
2022/01/14 03:08:58;;;;;;;5.70;3.00;;;;;;100707.91;;;;106447;1299;62574;-30
2022/01/14 03:11:37;;;;;;;5.70;2.70;;;;;;100701.63;;;;106445;1300;66696;-38
2022/01/14 03:14:04;;;;;;;5.90;3.20;;;;;;100697.50;;;;106474;1300;62637;-40
2022/01/14 03:16:39;;;;;;;5.80;3.10;;;;;;100698.08;;;;106485;1299;62568;-47
2022/01/14 03:19:13;;;;;;;6.10;3.30;;;;;;100702.27;;;;106457;1300;63683;-47
2022/01/14 03:21:41;;;;;;;6.90;3.40;;;;;;100703.70;;;;106492;1300;62603;-30
2022/01/14 03:26:45;;;;;;;5.30;2.70;;;;;;100710.80;;;;106462;1298;62675;-49
2022/01/14 03:29:14;;;;;;;5.80;2.90;;;;;;100714.23;;;;106479;1299;62637;-48
2022/01/14 03:31:43;;;;;;;5.70;2.70;;;;;;100724.77;;;;106449;1298;62650;-30
2022/01/14 03:34:11;;;;;;;5.30;2.80;;;;;;100735.19;;;;106486;1299;63107;-30
2022/01/14 03:36:41;;;;;;;5.20;2.40;;;;;;100742.75;;;;106436;1300;66240;-28
2022/01/14 03:39:08;;;;;;;5.60;2.80;;;;;;100737.58;;;;106455;1299;62583;-27
2022/01/14 03:41:35;;;;;;;5.20;2.70;;;;;;100745.55;;;;106458;1299;62618;-47
2022/01/14 03:44:03;;;;;;;5.20;2.80;;;;;;100746.25;;;;106456;1299;62597;-49
2022/01/14 03:46:31;;;;;;;5.10;2.70;;;;;;100747.73;;;;106476;1299;62600;-48
2022/01/14 03:48:58;;;;;;;5.00;2.70;;;;;;100737.50;;;;106489;1298;65326;-48
2022/01/14 03:51:27;;;;;;;5.30;2.60;;;;;;100724.02;;;;106479;1299;62655;-44
2022/01/14 03:53:56;;;;;;;5.30;3.00;;;;;;100722.98;;;;106471;1299;62563;-50
2022/01/14 03:56:23;;;;;;;4.40;2.50;;;;;;100727.17;;;;106455;1298;62575;-41
2022/01/14 03:58:51;;;;;;;5.50;2.60;;;;;;100725.77;;;;106505;1298;62502;-48
2022/01/14 04:01:22;;;;;;;5.80;2.60;;;;;;100724.48;;;;106473;1300;67424;-48
2022/01/14 04:03:52;;;;;;;4.80;2.70;;;;;;100722.27;;;;106415;1299;62638;-48
2022/01/14 04:06:22;;;;;;;4.90;2.60;;;;;;100731.09;;;;106492;1299;62476;-49
2022/01/14 04:08:50;;;;;;;5.00;2.30;;;;;;100731.55;;;;106455;1299;62638;-48
2022/01/14 04:11:22;;;;;;;5.20;2.70;;;;;;100720.70;;;;106491;1298;62501;-48
2022/01/14 04:13:55;;;;;;;5.10;2.40;;;;;;100715.55;;;;106470;1299;66294;-28
2022/01/14 04:16:24;;;;;;;5.50;2.80;;;;;;100710.60;;;;106463;1300;62623;-28
2022/01/14 04:18:52;;;;;;;4.50;2.60;;;;;;100708.80;;;;106428;1299;62654;-28
2022/01/14 04:21:26;;;;;;;4.70;2.20;;;;;;100710.48;;;;106449;1300;62703;-30
2022/01/14 04:23:56;;;;;;;4.70;2.30;;;;;;100700.84;;;;106498;1299;62529;-30
2022/01/14 04:26:23;;;;;;;5.10;2.50;;;;;;100705.02;;;;106466;1300;65837;-35
2022/01/14 04:28:51;;;;;;;4.70;2.40;;;;;;100706.05;;;;106473;1298;62556;-30
2022/01/14 04:31:18;;;;;;;5.10;2.60;;;;;;100690.44;;;;106480;1298;62572;-31
2022/01/14 04:33:45;;;;;;;5.00;2.40;;;;;;100687.66;;;;106452;1298;62601;-43
2022/01/14 04:36:12;;;;;;;4.90;2.30;;;;;;100679.27;;;;106494;1298;62623;-43
2022/01/14 04:38:39;;;;;;;4.90;2.10;;;;;;100670.96;;;;106504;1299;67121;-45
2022/01/14 04:41:08;;;;;;;4.60;2.40;;;;;;100660.86;;;;106473;1299;62735;-42
2022/01/14 04:43:36;;;;;;;4.80;2.50;;;;;;100659.73;;;;106487;1299;62592;-28
2022/01/14 04:48:37;;;;;;;4.40;1.90;;;;;;100630.71;;;;106481;1299;62539;-29
2022/01/14 04:51:11;;;;;;;4.20;2.20;;;;;;100626.17;;;;106492;1299;64674;-29
2022/01/14 04:53:38;;;;;;;4.80;2.20;;;;;;100615.10;;;;106417;1299;62654;-48
2022/01/14 04:56:06;;;;;;;4.00;1.90;;;;;;100627.31;;;;106440;1298;62625;-48
2022/01/14 04:58:33;;;;;;;4.50;2.00;;;;;;100625.88;;;;106422;1299;62645;-48
2022/01/14 05:01:01;;;;;;;4.40;2.50;;;;;;100637.60;;;;106488;1300;62518;-48
2022/01/14 05:03:28;;;;;;;5.10;2.10;;;;;;100634.83;;;;106476;1299;64666;-30
2022/01/14 05:06:00;;;;;;;3.90;2.00;;;;;;100629.27;;;;106447;1299;62590;-28
2022/01/14 05:08:36;;;;;;;3.90;1.80;;;;;;100630.32;;;;106465;1299;62523;-48
2022/01/14 05:11:38;;;;;;;5.10;2.30;;;;;;100618.75;;;;106466;1300;62672;-48
2022/01/14 05:13:52;;;;;;;4.00;2.20;;;;;;100608.04;;;;106445;1298;62564;-41
2022/01/14 05:16:22;;;;;;;4.90;2.40;;;;;;100604.89;;;;106469;1298;65306;-48
2022/01/14 05:18:49;;;;;;;5.40;2.20;;;;;;100603.17;;;;106460;1300;62594;-48
2022/01/14 05:21:20;;;;;;;5.50;2.50;;;;;;100606.49;;;;106437;1299;62652;-47
2022/01/14 05:23:47;;;;;;;4.60;2.00;;;;;;100601.36;;;;106454;1300;62646;-47
2022/01/14 05:26:14;;;;;;;4.90;2.50;;;;;;100584.42;;;;106479;1300;62584;-48
2022/01/14 05:28:41;;;;;;;4.30;2.10;;;;;;100589.19;;;;106463;1299;66549;-48
2022/01/14 05:31:08;;;;;;;4.10;2.30;;;;;;100582.67;;;;106429;1300;62726;-48
2022/01/14 05:33:41;;;;;;;4.10;2.10;;;;;;100582.77;;;;106449;1298;62652;-29
2022/01/14 05:36:08;;;;;;;4.60;2.30;;;;;;100598.72;;;;106414;1299;62569;-37
2022/01/14 05:38:35;;;;;;;5.00;2.00;;;;;;100576.98;;;;106476;1299;62603;-31
2022/01/14 05:41:03;;;;;;;4.60;2.40;;;;;;100574.46;;;;106490;1300;66615;-30
2022/01/14 05:43:30;;;;;;;3.60;1.90;;;;;;100579.86;;;;106450;1299;62656;-30
2022/01/14 05:45:57;;;;;;;4.60;2.20;;;;;;100570.11;;;;106446;1300;62588;-34
2022/01/14 05:48:24;;;;;;;4.30;2.00;;;;;;100572.91;;;;106450;1299;62472;-30
2022/01/14 05:50:51;;;;;;;4.70;1.90;;;;;;100571.59;;;;106455;1298;62638;-29
2022/01/14 05:53:22;;;;;;;4.80;2.10;;;;;;100574.70;;;;106481;1298;67016;-44
2022/01/14 05:55:49;;;;;;;3.80;1.80;;;;;;100561.23;;;;106434;1298;62702;-45
2022/01/14 05:58:16;;;;;;;5.20;2.10;;;;;;100559.89;;;;106462;1298;62527;-29
2022/01/14 06:00:44;;;;;;;3.70;1.90;;;;;;100553.34;;;;106379;1300;62543;-31
2022/01/14 06:03:11;;;;;;;4.10;1.70;;;;;;100554.29;;;;106492;1298;62559;-41
2022/01/14 06:05:38;;;;;;;3.10;1.50;;;;;;100567.88;;;;106452;1298;66000;-40
2022/01/14 06:08:05;;;;;;;3.80;1.70;;;;;;100551.95;;;;106443;1300;62717;-48
2022/01/14 06:10:33;;;;;;;3.90;2.00;;;;;;100547.27;;;;106460;1299;62619;-49
2022/01/14 06:13:00;;;;;;;4.20;1.80;;;;;;100549.52;;;;106464;1300;62567;-28
2022/01/14 06:15:27;;;;;;;4.80;1.90;;;;;;100552.28;;;;106484;1300;62545;-35
2022/01/14 06:17:55;;;;;;;4.40;1.80;;;;;;100547.91;;;;106450;1298;65311;-49
2022/01/14 06:20:23;;;;;;;3.80;1.50;;;;;;100546.17;;;;106430;1299;62700;-44
2022/01/14 06:22:54;;;;;;;6.10;2.50;;;;;;100552.30;;;;106344;1300;62561;-42
2022/01/14 06:25:23;;;;;;;4.10;1.50;;;;;;100528.88;;;;106452;1298;62684;-42
2022/01/14 06:27:50;;;;;;;3.90;1.80;;;;;;100526.47;;;;106444;1299;62545;-41
2022/01/14 06:30:18;;;;;;;4.30;2.00;;;;;;100533.85;;;;106424;1299;66524;-42
2022/01/14 06:32:46;;;;;;;4.60;2.40;;;;;;100526.67;;;;106461;1299;62993;-48
2022/01/14 06:35:15;;;;;;;4.10;1.90;;;;;;100529.10;;;;106418;1299;62506;-50
2022/01/14 06:37:42;;;;;;;4.20;2.00;;;;;;100523.95;;;;106459;1298;62665;-50
2022/01/14 06:40:10;;;;;;;4.30;2.10;;;;;;100523.15;;;;106505;1298;62587;-49
2022/01/14 06:42:38;;;;;;;4.10;2.00;;;;;;100519.14;;;;106469;1299;64426;-50
2022/01/14 06:45:07;;;;;;;5.30;1.80;;;;;;100528.29;;;;106467;1299;62622;-41
2022/01/14 06:47:35;;;;;;;4.60;2.10;;;;;;100544.77;;;;106479;1300;62526;-52
2022/01/14 06:50:02;;;;;;;4.20;2.10;;;;;;100538.85;;;;106453;1298;62625;-48
2022/01/14 06:52:29;;;;;;;4.20;2.30;;;;;;100532.86;;;;106491;1298;62549;-30
2022/01/14 06:54:57;;;;;;;5.70;2.00;;;;;;100522.23;;;;106448;1297;64946;-30
2022/01/14 06:57:24;;;;;;;4.40;1.90;;;;;;100519.66;;;;106474;1300;62747;-29
2022/01/14 06:59:51;;;;;;;5.70;2.30;;;;;;100519.27;;;;106474;1299;62555;-29
2022/01/14 07:02:18;;;;;;;4.30;2.10;;;;;;100522.64;;;;106477;1298;62706;-47
2022/01/14 07:04:46;;;;;;;3.60;1.80;;;;;;100526.70;;;;106426;1299;62663;-33
2022/01/14 07:07:13;;;;;;;3.90;1.70;;;;;;100525.73;;;;106458;1298;66080;-54
2022/01/14 07:09:56;;;;;;;3.30;1.60;;;;;;100527.86;;;;106463;1299;62679;-47
2022/01/14 07:12:30;;;;;;;3.40;1.60;;;;;;100511.34;;;;106470;1299;62552;-51
2022/01/14 07:14:58;;;;;;;4.00;1.60;;;;;;100505.02;;;;106461;1300;62546;-48
2022/01/14 07:17:26;;;;;;;4.20;1.60;;;;;;100494.70;;;;106477;1300;62469;-29
2022/01/14 07:19:58;;;;;;;5.10;1.70;;;;;;100483.94;;;;106458;1298;65827;-30
2022/01/14 07:22:25;;;;;;;5.00;1.90;;;;;;100490.04;;;;106476;1299;62597;-46
2022/01/14 07:24:52;;;;;;;4.10;1.50;;;;;;100490.91;;;;106482;1300;62573;-46
2022/01/14 07:27:22;;;;;;;3.60;1.60;;;;;;100495.02;;;;106463;1299;62639;-34
2022/01/14 07:29:49;;;;;;;4.10;1.50;;;;;;100489.42;;;;106486;1300;62516;-32
2022/01/14 07:32:20;;;;;;;3.90;1.50;;;;;;100493.02;;;;106502;1300;66155;-31
2022/01/14 07:34:47;;;;;;;3.50;1.30;;;;;;100491.38;;;;106442;1298;62700;-35
2022/01/14 07:37:15;;;;;;;4.70;1.60;;;;;;100485.09;;;;106455;1297;62672;-44
2022/01/14 07:39:43;;;;;;;3.40;1.40;;;;;;100488.19;;;;106424;1299;62674;-44
2022/01/14 07:42:10;;;;;;;4.50;1.70;;;;;;100494.05;;;;106485;1300;62541;-45
2022/01/14 07:44:40;;;;;;;3.70;1.30;;;;;;100493.59;;;;106463;1297;65279;-46
2022/01/14 07:47:07;;;;;;;3.40;1.40;;;;;;100481.02;;;;106475;1298;62725;-45
2022/01/14 07:49:35;;;;;;;3.90;1.60;;;;;;100480.67;;;;106452;1299;62581;-40
2022/01/14 07:52:03;;;;;;;4.50;1.50;;;;;;100488.13;;;;106440;1300;62484;-34
2022/01/14 07:54:30;;;;;;;4.30;1.70;;;;;;100475.34;;;;106489;1300;62535;-33
2022/01/14 07:57:00;;;;;;;3.30;1.30;;;;;;100477.35;;;;106472;1300;65419;-31
2022/01/14 07:59:32;;;;;;;3.20;1.40;;;;;;100476.39;;;;106466;1300;62581;-31
2022/01/14 08:01:59;;;;;;;2.80;1.30;;;;;;100474.73;;;;106431;1299;62581;-41
2022/01/14 08:04:27;;;;;;;3.10;1.30;;;;;;100450.39;;;;106422;1299;62658;-41
2022/01/14 08:06:57;;;;;;;3.20;1.40;;;;;;100444.31;;;;106495;1297;62571;-31
2022/01/14 08:09:25;;;;;;;4.00;1.40;;;;;;100453.32;;;;106527;1297;66146;-32
2022/01/14 08:11:52;;;;;;;3.70;1.40;;;;;;100448.96;;;;106444;1298;62694;-44
2022/01/14 08:14:20;;;;;;;4.90;1.20;;;;;;100445.64;;;;106468;1299;62569;-32
2022/01/14 08:16:47;;;;;;;3.40;1.40;;;;;;100430.86;;;;106462;1298;62674;-32
2022/01/14 08:19:15;;;;;;;2.90;1.20;;;;;;100422.77;;;;106474;1299;62599;-31
2022/01/14 08:21:42;;;;;;;3.70;1.30;;;;;;100429.74;;;;106464;1300;65255;-46
2022/01/14 08:24:09;;;;;;;2.90;1.10;;;;;;100427.94;;;;106454;1299;62693;-45
2022/01/14 08:26:36;;;;;;;3.30;1.40;;;;;;100419.76;;;;106442;1298;62689;-43
2022/01/14 08:29:03;;;;;;;3.60;1.90;;;;;;100421.00;;;;106461;1300;62695;-42
2022/01/14 08:31:31;;;;;;;2.90;1.20;;;;;;100412.52;;;;106423;1299;62620;-33
2022/01/14 08:33:59;;;;;;;3.00;1.00;;;;;;100424.64;;;;106486;1299;66065;-34
2022/01/14 08:36:29;;;;;;;4.40;1.50;;;;;;100429.66;;;;106466;1300;62738;-38
2022/01/14 08:38:56;;;;;;;3.20;1.20;;;;;;100420.34;;;;106345;1300;62832;-40
2022/01/14 08:41:28;;;;;;;3.10;1.30;;;;;;100408.84;;;;106497;1299;62660;-39
2022/01/14 08:44:00;;;;;;;4.00;1.30;;;;;;100398.38;;;;106520;1296;62664;-43
2022/01/14 08:46:27;;;;;;;3.50;1.30;;;;;;100405.92;;;;106476;1300;65798;-32
2022/01/14 08:48:56;;;;;;;2.90;1.10;;;;;;100409.12;;;;106449;1298;62815;-38
2022/01/14 08:51:24;;;;;;;3.00;1.00;;;;;;100412.26;;;;106451;1298;62557;-40
2022/01/14 08:53:51;;;;;;;2.40;1.10;;;;;;100409.30;;;;106487;1298;62617;-42
2022/01/14 08:56:18;;;;;;;3.40;1.20;;;;;;100403.21;;;;106485;1298;62633;-44
2022/01/14 08:58:46;;;;;;;2.80;1.10;;;;;;100406.90;;;;106490;1298;64995;-39
2022/01/14 09:01:13;;;;;;;3.70;1.30;;;;;;100403.13;;;;106425;1299;62723;-39
2022/01/14 09:03:40;;;;;;;2.90;1.30;;;;;;100395.31;;;;106254;1298;297390;-34
2022/01/14 09:06:07;;;;;;;2.60;1.10;;;;;;100406.94;;;;106483;1298;62721;-33
2022/01/14 09:08:34;;;;;;;2.90;1.10;;;;;;100394.58;;;;106491;1299;62573;-30
2022/01/14 09:11:02;;;;;;;3.90;1.30;;;;;;100397.89;;;;106508;1298;65792;-30
2022/01/14 09:13:29;;;;;;;3.30;1.30;;;;;;100389.83;;;;106460;1298;62603;-35
2022/01/14 09:15:56;;;;;;;3.10;1.40;;;;;;100394.78;;;;106487;1300;62553;-35
2022/01/14 09:18:23;;;;;;;3.60;1.30;;;;;;100401.10;;;;106489;1299;62874;-32
2022/01/14 09:20:51;;;;;;;2.60;1.20;;;;;;100402.10;;;;106443;1299;62575;-32
2022/01/14 09:23:24;;;;;;;2.80;1.10;;;;;;100393.30;;;;106482;1298;66580;-45
2022/01/14 09:25:55;;;;;;;3.70;1.50;;;;;;100389.73;;;;106476;1298;62635;-44
2022/01/14 09:28:22;;;;;;;2.50;1.10;;;;;;100367.48;;;;106504;1298;62552;-46
2022/01/14 09:30:49;;;;;;;2.90;1.20;;;;;;100397.44;;;;106472;1300;62697;-44
2022/01/14 09:33:18;;;;;;;3.90;1.50;;;;;;100372.51;;;;106510;1298;62555;-33
2022/01/14 09:35:46;;;;;;;2.70;1.00;;;;;;100382.65;;;;106441;1299;66128;-34
2022/01/14 09:38:14;;;;;;;3.10;1.20;;;;;;100376.73;;;;106477;1299;62702;-32
2022/01/14 09:40:44;;;;;;;3.60;1.30;;;;;;100368.06;;;;106472;1298;62694;-36
2022/01/14 09:43:15;;;;;;;4.20;1.40;;;;;;100377.98;;;;106439;1299;62706;-34
2022/01/14 09:45:42;;;;;;;2.90;1.20;;;;;;100376.77;;;;106508;1298;62569;-33
2022/01/14 09:48:14;;;;;;;3.40;1.20;;;;;;100379.34;;;;106477;1299;65068;-33
2022/01/14 09:50:43;;;;;;;3.30;1.40;;;;;;100362.23;;;;106502;1297;62687;-33
2022/01/14 09:53:13;;;;;;;4.70;1.30;;;;;;100365.69;;;;106489;1299;62638;-33
2022/01/14 09:55:43;;;;;;;2.70;1.00;;;;;;100361.04;;;;106429;1299;62711;-33
2022/01/14 09:58:10;;;;;;;3.80;1.20;;;;;;100366.46;;;;106443;1299;62573;-33
2022/01/14 10:00:38;;;;;;;2.90;1.20;;;;;;100365.54;;;;106515;1300;66136;-34
2022/01/14 10:03:24;;;;;;;4.10;1.20;;;;;;100356.33;;;;106484;1298;62650;-34
2022/01/14 10:05:56;;;;;;;2.90;1.20;;;;;;100363.19;;;;106461;1300;63114;-31
2022/01/14 10:08:28;;;;;;;2.90;1.20;;;;;;100360.42;;;;106432;1299;62663;-30
2022/01/14 10:11:00;;;;;;;2.70;1.10;;;;;;100357.58;;;;106503;1299;62637;-30
2022/01/14 10:13:34;;;;;;;3.10;1.10;;;;;;100353.52;;;;106511;1300;68563;-32
2022/01/14 10:16:08;;;;;;;4.70;1.40;;;;;;100341.42;;;;106408;1298;62629;-30
2022/01/14 10:18:36;;;;;;;;;;;;;;100348.66;;;;106490;1299;62627;-43
2022/01/14 10:21:06;;;;;;;2.40;1.10;;;;;;100339.34;;;;106460;1299;62693;-42
2022/01/14 10:23:42;;;;;;;3.00;1.40;;;;;;100336.21;;;;106474;1299;63005;-43
2022/01/14 10:26:12;;;;;;;3.90;1.20;;;;;;100336.61;;;;106456;1299;67199;-44
2022/01/14 10:28:40;;;;;;;3.40;1.20;;;;;;100333.67;;;;106479;1298;62626;-30
2022/01/14 10:31:07;;;;;;;3.80;1.30;;;;;;100329.43;;;;106399;1299;62585;-30
2022/01/14 10:33:34;;;;;;;4.50;1.30;;;;;;100320.32;;;;106458;1300;62637;-39
2022/01/14 10:36:03;;;;;;;3.00;1.30;;;;;;100314.09;;;;106450;1299;62514;-37
2022/01/14 10:38:46;;;;;;;3.40;1.20;;;;;;100310.59;;;;106483;1299;66479;-30
2022/01/14 10:41:13;;;;;;;3.60;1.40;;;;;;100308.77;;;;106469;1298;63295;-30
2022/01/14 10:43:40;;;;;;;3.00;1.10;;;;;;100310.23;;;;106492;1297;62511;-29
2022/01/14 10:46:09;;;;;;;4.00;1.30;;;;;;100311.09;;;;106408;1299;62936;-31
2022/01/14 10:48:41;;;;;;;3.60;1.30;;;;;;100310.27;;;;106512;1300;62533;-42
2022/01/14 10:51:11;;;;;;;2.90;1.00;;;;;;100308.20;;;;106498;1299;64409;-30
2022/01/14 10:53:42;;;;;;;3.50;1.10;;;;;;100313.02;;;;106455;1299;62659;-43
2022/01/14 10:56:18;;;;;;;3.00;1.20;;;;;;100311.26;;;;106334;1300;62616;-43
2022/01/14 10:58:48;;;;;;;3.40;1.30;;;;;;100320.73;;;;106467;1299;62958;-42
2022/01/14 11:01:21;;;;;;;3.50;1.20;;;;;;100310.85;;;;106431;1299;62599;-46
2022/01/14 11:03:56;;;;;;;4.40;1.50;;;;;;100298.92;;;;106516;1300;65927;-29
2022/01/14 11:06:38;;;;;;;4.10;1.50;;;;;;100298.02;;;;106489;1298;62729;-29
2022/01/14 11:09:17;;;;;;;4.10;1.50;;;;;;100292.06;;;;106519;1298;62577;-40
2022/01/14 11:11:49;;;;;;;3.00;1.00;;;;;;100298.02;;;;106433;1299;62583;-30
2022/01/14 11:14:17;;;;;;;3.20;1.30;;;;;;100295.36;;;;106517;1299;62622;-30
2022/01/14 11:16:45;;;;;;;4.40;1.60;;;;;;100288.60;;;;106494;1298;65133;-29
2022/01/14 11:19:14;;;;;;;3.70;1.50;;;;;;100286.60;;;;106442;1299;62686;-28
2022/01/14 11:24:34;;;;;;;4.20;1.40;;;;;;100288.56;;;;106506;1298;62585;-30
2022/01/14 11:27:13;;;;;;;3.90;1.50;;;;;;100286.06;;;;106511;1298;62663;-33
2022/01/14 11:29:51;;;;;;;3.90;1.30;;;;;;100291.79;;;;106473;1299;66950;-30
2022/01/14 11:32:19;;;;;;;2.80;1.40;;;;;;100286.75;;;;106494;1298;62662;-29
2022/01/14 11:34:48;;;;;;;2.90;1.40;;;;;;100295.02;;;;106440;1299;62979;-29
2022/01/14 11:37:32;;;;;;;3.90;1.50;;;;;;100288.63;;;;106485;1298;62686;-41
2022/01/14 11:40:07;;;;;;;4.00;1.50;;;;;;100293.40;;;;106505;1299;62659;-39
2022/01/14 11:42:38;;;;;;;4.10;1.60;;;;;;100281.27;;;;106427;1299;68083;-36
2022/01/14 11:45:08;;;;;;;3.50;1.50;;;;;;100291.98;;;;106474;1298;62575;-35
2022/01/14 11:47:40;;;;;;;3.90;1.30;;;;;;100294.79;;;;106507;1300;62581;-42
2022/01/14 11:50:30;;;;;;;7.20;1.90;;;;;;100281.21;;;;106491;1299;62651;-35
2022/01/14 11:52:59;;;;;;;3.50;1.40;;;;;;100288.82;;;;106525;1298;62516;-31
2022/01/14 11:55:34;;;;;;;2.80;1.30;;;;;;100285.02;;;;106457;1299;65724;-32
2022/01/14 11:58:09;;;;;;;3.80;1.50;;;;;;100288.20;;;;106505;1300;62692;-32
2022/01/14 12:00:41;;;;;;;3.20;1.40;;;;;;100292.61;;;;106515;1298;62718;-32
2022/01/14 12:03:14;;;;;;;4.10;1.60;;;;;;100289.73;;;;106418;1298;62932;-45
2022/01/14 12:05:54;;;;;;;3.70;1.30;;;;;;100288.43;;;;106504;1300;62640;-44
2022/01/14 12:08:27;;;;;;;4.50;1.70;;;;;;100290.54;;;;106510;1300;66183;-45
2022/01/14 12:11:00;;;;;;;4.20;1.70;;;;;;100293.58;;;;106497;1299;62682;-31
2022/01/14 12:13:41;;;;;;;3.20;1.30;;;;;;100288.64;;;;106434;1297;62596;-46
2022/01/14 12:16:36;;;;;;;5.20;1.80;;;;;;100295.27;;;;106493;1299;63016;-46
2022/01/14 12:19:03;;;;;;;4.70;2.20;;;;;;100292.58;;;;106509;1298;62963;-33
2022/01/14 12:21:38;;;;;;;5.10;1.90;;;;;;100280.07;;;;106485;1298;66220;-47
2022/01/14 12:24:19;;;;;;;;;;;;;;100270.27;;;;106508;1299;62589;-34
2022/01/14 12:26:52;;;;;;;4.40;1.80;;;;;;100272.27;;;;106504;1298;62755;-31
2022/01/14 12:29:38;;;;;;;3.40;1.60;;;;;;100274.60;;;;106505;1300;62981;-44
2022/01/14 12:32:08;;;;;;;5.80;1.90;;;;;;100277.86;;;;106502;1300;62544;-31
2022/01/14 12:34:39;;;;;;;5.10;2.10;;;;;;100276.73;;;;106458;1299;66029;-30
2022/01/14 12:37:09;;;;;;;4.10;1.80;;;;;;100277.42;;;;106479;1299;63189;-31
2022/01/14 12:39:38;;;;;;;4.90;2.00;;;;;;100271.30;;;;106472;1299;62573;-33
2022/01/14 12:42:06;;;;;;;4.30;1.70;;;;;;100266.90;;;;106419;1299;62933;-45
2022/01/14 12:44:38;;;;;;;3.60;1.70;;;;;;100280.56;;;;106525;1299;62675;-31
2022/01/14 12:47:09;;;;;;;4.00;1.90;;;;;;100277.61;;;;106513;1298;66597;-44
2022/01/14 12:49:39;;;;;;;4.30;1.90;;;;;;100279.77;;;;106505;1299;62566;-32
2022/01/14 12:52:11;;;;;;;4.20;1.60;;;;;;100274.66;;;;106501;1298;62596;-33
2022/01/14 12:54:41;;;;;;;3.80;1.50;;;;;;100273.91;;;;106435;1299;62616;-32
2022/01/14 12:57:12;;;;;;;5.10;1.70;;;;;;100275.48;;;;106425;1299;62631;-45
2022/01/14 12:59:42;;;;;;;4.40;1.70;;;;;;100268.95;;;;106509;1298;66541;-35
2022/01/14 13:02:24;;;;;;;3.60;1.60;;;;;;100265.55;;;;106488;1299;63024;-45
2022/01/14 13:05:21;;;;;;;5.00;1.80;;;;;;100274.73;;;;106499;1298;62577;-39
2022/01/14 13:07:49;;;;;;;4.70;1.90;;;;;;100274.29;;;;106509;1299;62606;-37
2022/01/14 13:10:18;;;;;;;4.20;1.70;;;;;;100271.45;;;;106522;1297;62544;-42
2022/01/14 13:12:46;;;;;;;4.20;1.90;;;;;;100279.21;;;;106425;1298;66915;-41
2022/01/14 13:15:24;;;;;;;6.30;1.90;;;;;;100283.25;;;;106502;1299;62691;-43
2022/01/14 13:18:07;;;;;;;5.30;2.00;;;;;;100286.80;;;;106497;1300;62556;-42
2022/01/14 13:20:35;;;;;;;4.50;2.00;;;;;;100282.36;;;;106478;1300;62642;-46
2022/01/14 13:23:07;;;;;;;5.30;1.80;;;;;;100290.38;;;;106495;1298;62621;-34
2022/01/14 13:25:35;;;;;;;5.00;1.90;;;;;;100294.28;;;;106516;1298;64788;-30
2022/01/14 13:28:04;;;;;;;4.60;1.80;;;;;;100289.68;;;;106429;1299;62665;-34
2022/01/14 13:30:37;;;;;;;5.70;1.80;;;;;;100287.23;;;;106492;1298;62563;-45